createdAt,value
2022-10-10T00:00:38.437Z,9.08
2022-10-10T00:03:25.111Z,8.96
2022-10-10T00:06:11.457Z,8.97
2022-10-10T00:08:56.934Z,9.04
2022-10-10T00:11:41.945Z,9.02
2022-10-10T00:14:30.420Z,9.05
2022-10-10T00:17:17.911Z,9.07
2022-10-10T00:20:03.727Z,9.00
2022-10-10T00:22:49.110Z,8.93
2022-10-10T00:25:34.156Z,8.99
2022-10-10T00:28:19.592Z,8.95
2022-10-10T00:31:06.619Z,8.90
2022-10-10T00:33:51.441Z,8.81
2022-10-10T00:36:36.316Z,8.92
2022-10-10T00:39:21.455Z,8.89
2022-10-10T00:42:06.390Z,8.90
2022-10-10T00:45:19.285Z,8.85
2022-10-10T00:48:35.133Z,8.79
2022-10-10T00:51:20.718Z,8.90
2022-10-10T00:54:09.365Z,8.81
2022-10-10T00:57:03.732Z,8.77
2022-10-10T00:59:49.981Z,8.73
2022-10-10T01:02:35.213Z,8.83
2022-10-10T01:05:20.129Z,8.87
2022-10-10T01:08:07.090Z,8.81
2022-10-10T01:11:33.338Z,8.78
2022-10-10T01:14:32.567Z,8.70
2022-10-10T01:17:48.184Z,8.65
2022-10-10T01:20:45.252Z,8.60
2022-10-10T01:24:07.445Z,8.58
2022-10-10T01:27:18.206Z,8.55
2022-10-10T01:30:08.841Z,8.51
2022-10-10T01:33:08.648Z,8.56
2022-10-10T01:36:08.749Z,8.53
2022-10-10T01:39:20.091Z,8.62
2022-10-10T01:42:16.036Z,8.63
2022-10-10T01:45:00.975Z,8.55
2022-10-10T01:47:47.270Z,8.61
2022-10-10T01:50:42.315Z,8.53
2022-10-10T01:53:56.747Z,8.49
2022-10-10T01:57:15.127Z,8.50
2022-10-10T02:00:03.002Z,8.34
2022-10-10T02:02:56.948Z,8.29
2022-10-10T02:05:58.124Z,8.27
2022-10-10T02:08:54.570Z,8.25
2022-10-10T02:11:40.808Z,8.25
2022-10-10T02:14:31.990Z,8.42
2022-10-10T02:17:18.031Z,8.38
2022-10-10T02:20:06.114Z,8.31
2022-10-10T02:22:52.417Z,8.35
2022-10-10T02:25:41.193Z,8.25
2022-10-10T02:28:38.248Z,8.14
2022-10-10T02:31:37.502Z,8.02
2022-10-10T02:34:27.828Z,7.96
2022-10-10T02:37:15.658Z,7.98
2022-10-10T02:40:02.544Z,7.95
2022-10-10T02:42:50.655Z,7.83
2022-10-10T02:45:36.910Z,7.86
2022-10-10T02:48:21.805Z,7.79
2022-10-10T02:51:07.145Z,7.76
2022-10-10T02:53:52.150Z,7.77
2022-10-10T02:56:37.513Z,7.76
2022-10-10T02:59:22.450Z,7.75
2022-10-10T03:02:07.479Z,7.77
2022-10-10T03:04:52.470Z,7.83
2022-10-10T03:07:37.402Z,7.74
2022-10-10T03:10:22.543Z,7.67
2022-10-10T03:13:07.590Z,7.62
2022-10-10T03:15:53.799Z,7.69
2022-10-10T03:18:38.642Z,7.74
2022-10-10T03:21:23.832Z,7.64
2022-10-10T03:24:08.847Z,7.73
2022-10-10T03:26:54.084Z,7.66
2022-10-10T03:29:39.011Z,7.74
2022-10-10T03:32:25.198Z,7.74
2022-10-10T03:35:09.956Z,7.72
2022-10-10T03:37:56.096Z,7.67
2022-10-10T03:40:43.446Z,7.64
2022-10-10T03:43:28.611Z,7.54
2022-10-10T03:46:16.182Z,7.48
2022-10-10T03:49:01.646Z,7.64
2022-10-10T03:51:46.941Z,7.76
2022-10-10T03:54:32.113Z,7.50
2022-10-10T03:57:17.111Z,7.56
2022-10-10T04:00:02.141Z,7.50
2022-10-10T04:02:47.293Z,7.43
2022-10-10T04:05:34.727Z,7.27
2022-10-10T04:08:20.483Z,7.23
2022-10-10T04:11:05.424Z,7.15
2022-10-10T04:13:50.528Z,7.21
2022-10-10T04:16:35.491Z,7.22
2022-10-10T04:19:20.409Z,7.22
2022-10-10T04:22:09.027Z,7.07
2022-10-10T04:24:56.150Z,7.14
2022-10-10T04:27:41.124Z,6.91
2022-10-10T04:30:26.769Z,6.94
2022-10-10T04:33:12.217Z,6.83
2022-10-10T04:35:57.399Z,6.85
2022-10-10T04:38:42.144Z,6.90
2022-10-10T04:41:27.026Z,6.90
2022-10-10T04:44:11.943Z,7.02
2022-10-10T04:46:56.955Z,6.98
2022-10-10T04:49:41.827Z,6.85
2022-10-10T04:52:27.192Z,6.91
2022-10-10T04:55:12.178Z,7.06
2022-10-10T04:57:57.056Z,6.84
2022-10-10T05:00:42.242Z,6.94
2022-10-10T05:03:27.304Z,6.84
2022-10-10T05:06:12.186Z,6.81
2022-10-10T05:08:57.499Z,6.63
2022-10-10T05:11:42.578Z,6.61
2022-10-10T05:14:28.235Z,6.61
2022-10-10T05:17:13.417Z,6.52
2022-10-10T05:19:59.040Z,6.70
2022-10-10T05:22:44.851Z,6.68
2022-10-10T05:25:29.854Z,6.69
2022-10-10T05:28:15.121Z,6.71
2022-10-10T05:31:00.979Z,6.73
2022-10-10T05:33:45.941Z,6.69
2022-10-10T05:36:30.930Z,6.69
2022-10-10T05:39:16.118Z,6.66
2022-10-10T05:42:01.845Z,6.72
2022-10-10T05:44:47.076Z,6.80
2022-10-10T05:47:32.368Z,6.77
2022-10-10T05:50:35.886Z,6.76
2022-10-10T05:53:26.305Z,6.79
2022-10-10T05:56:11.425Z,6.77
2022-10-10T05:58:56.356Z,6.78
2022-10-10T06:01:41.324Z,6.82
2022-10-10T06:04:26.683Z,6.87
2022-10-10T06:07:11.737Z,6.93
2022-10-10T06:09:56.828Z,6.95
2022-10-10T06:12:41.732Z,7.11
2022-10-10T06:15:27.024Z,7.37
2022-10-10T06:18:13.000Z,7.72
2022-10-10T06:21:02.241Z,8.05
2022-10-10T06:23:48.141Z,8.36
2022-10-10T06:26:33.669Z,8.51
2022-10-10T06:29:18.943Z,8.66
2022-10-10T06:32:03.843Z,8.88
2022-10-10T06:34:48.788Z,9.14
2022-10-10T06:37:33.829Z,9.55
2022-10-10T06:40:18.689Z,9.78
2022-10-10T06:43:04.121Z,10.04
2022-10-10T06:45:50.412Z,9.99
2022-10-10T06:48:35.500Z,10.25
2022-10-10T06:51:20.862Z,10.56
2022-10-10T06:54:05.961Z,11.06
2022-10-10T06:56:51.143Z,10.99
2022-10-10T06:59:36.172Z,11.10
2022-10-10T07:02:20.971Z,11.30
2022-10-10T07:05:07.461Z,10.98
2022-10-10T07:07:52.968Z,10.98
2022-10-10T07:10:38.417Z,10.94
2022-10-10T07:13:23.960Z,10.65
2022-10-10T07:16:10.673Z,10.39
2022-10-10T07:18:55.774Z,10.59
2022-10-10T07:21:40.984Z,10.53
2022-10-10T07:24:25.984Z,10.23
2022-10-10T07:27:11.205Z,10.27
2022-10-10T07:29:56.517Z,10.12
2022-10-10T07:32:42.042Z,10.19
2022-10-10T07:35:26.941Z,9.98
2022-10-10T07:38:11.878Z,9.99
2022-10-10T07:40:57.338Z,9.92
2022-10-10T07:43:42.668Z,9.91
2022-10-10T07:46:28.142Z,10.03
2022-10-10T07:49:13.083Z,10.09
2022-10-10T07:52:00.453Z,10.31
2022-10-10T07:54:45.870Z,10.46
2022-10-10T07:57:31.386Z,10.57
2022-10-10T08:00:17.082Z,10.69
2022-10-10T08:03:02.465Z,10.89
2022-10-10T08:05:47.384Z,11.20
2022-10-10T08:08:34.591Z,11.39
2022-10-10T08:11:21.787Z,11.52
2022-10-10T08:14:06.830Z,11.74
2022-10-10T08:16:51.858Z,11.77
2022-10-10T08:19:37.245Z,11.79
2022-10-10T08:22:22.535Z,11.90
2022-10-10T08:25:07.901Z,11.90
2022-10-10T08:27:53.434Z,12.01
2022-10-10T08:30:40.714Z,12.07
2022-10-10T08:33:27.458Z,12.19
2022-10-10T08:36:15.855Z,12.34
2022-10-10T08:39:00.855Z,12.44
2022-10-10T08:41:48.967Z,12.59
2022-10-10T08:44:46.185Z,12.59
2022-10-10T08:47:31.576Z,12.76
2022-10-10T08:50:20.223Z,12.91
2022-10-10T08:53:42.791Z,12.99
2022-10-10T08:56:31.410Z,13.10
2022-10-10T08:59:23.237Z,13.23
2022-10-10T09:05:39.798Z,13.31
2022-10-10T09:08:39.364Z,13.54
2022-10-10T09:11:33.854Z,13.74
2022-10-10T09:14:36.876Z,13.95
2022-10-10T09:17:36.355Z,14.13
2022-10-10T09:20:24.490Z,14.13
2022-10-10T09:23:27.360Z,14.30
2022-10-10T09:26:15.804Z,14.28
2022-10-10T09:29:27.314Z,14.37
2022-10-10T09:32:25.324Z,14.55
2022-10-10T09:35:25.407Z,14.59
2022-10-10T09:38:10.614Z,14.61
2022-10-10T09:41:21.605Z,14.66
2022-10-10T09:44:13.621Z,14.77
2022-10-10T09:46:59.322Z,14.78
2022-10-10T09:49:45.050Z,14.83
2022-10-10T09:52:31.875Z,15.05
2022-10-10T09:55:29.315Z,15.09
2022-10-10T09:58:44.864Z,15.10
2022-10-10T10:01:31.989Z,15.08
2022-10-10T10:04:28.698Z,15.17
2022-10-10T10:07:17.441Z,15.36
2022-10-10T10:10:17.306Z,15.41
2022-10-10T10:13:02.670Z,15.63
2022-10-10T10:15:52.066Z,15.76
2022-10-10T10:18:42.701Z,15.73
2022-10-10T10:21:28.987Z,15.68
2022-10-10T10:24:23.653Z,16.01
2022-10-10T10:27:21.038Z,16.18
2022-10-10T10:30:24.300Z,16.07
2022-10-10T10:33:50.704Z,16.05
2022-10-10T10:36:45.142Z,15.99
2022-10-10T10:39:41.905Z,16.19
2022-10-10T10:42:45.095Z,16.50
2022-10-10T10:46:00.931Z,16.48
2022-10-10T10:49:09.718Z,16.63
2022-10-10T10:52:03.534Z,16.73
2022-10-10T10:55:19.260Z,16.81
2022-10-10T10:59:16.020Z,16.63
2022-10-10T11:02:08.964Z,16.91
2022-10-10T11:05:19.452Z,17.12
2022-10-10T11:08:28.474Z,17.04
2022-10-10T11:11:25.797Z,16.92
2022-10-10T11:14:33.092Z,16.98
2022-10-10T11:17:39.531Z,17.06
2022-10-10T11:20:30.497Z,17.30
2022-10-10T11:23:24.976Z,17.39
2022-10-10T11:26:21.952Z,17.57
2022-10-10T11:29:51.816Z,17.62
2022-10-10T11:32:40.713Z,17.38
2022-10-10T11:35:52.579Z,17.37
2022-10-10T11:38:56.346Z,17.39
2022-10-10T11:41:44.649Z,17.35
2022-10-10T11:44:40.313Z,17.47
2022-10-10T11:47:32.819Z,17.57
2022-10-10T11:50:28.658Z,17.38
2022-10-10T11:53:28.686Z,17.60
2022-10-10T11:56:14.620Z,17.71
2022-10-10T11:59:30.058Z,17.67
2022-10-10T12:02:37.053Z,18.05
2022-10-10T12:05:25.642Z,17.98
2022-10-10T12:08:18.456Z,18.07
2022-10-10T12:11:22.573Z,18.24
2022-10-10T12:14:13.611Z,18.08
2022-10-10T12:16:59.806Z,18.00
2022-10-10T12:19:48.276Z,17.83
2022-10-10T12:22:33.765Z,17.74
2022-10-10T12:25:35.384Z,17.87
2022-10-10T12:28:36.528Z,18.14
2022-10-10T12:31:33.774Z,18.28
2022-10-10T12:34:43.981Z,18.32
2022-10-10T12:37:32.075Z,18.19
2022-10-10T12:40:20.742Z,18.23
2022-10-10T12:43:44.220Z,17.99
2022-10-10T12:46:31.333Z,17.92
2022-10-10T12:49:25.918Z,17.93
2022-10-10T12:52:20.341Z,18.18
2022-10-10T12:55:20.420Z,18.06
2022-10-10T12:58:17.289Z,17.82
2022-10-10T13:01:41.943Z,17.99
2022-10-10T13:04:27.248Z,18.34
2022-10-10T13:07:18.045Z,18.50
2022-10-10T13:10:19.999Z,18.34
2022-10-10T13:13:21.324Z,18.79
2022-10-10T13:16:15.003Z,18.67
2022-10-10T13:19:00.795Z,19.06
2022-10-10T13:21:46.730Z,18.53
2022-10-10T13:24:31.969Z,18.31
2022-10-10T13:27:27.981Z,18.48
2022-10-10T13:30:31.611Z,18.30
2022-10-10T13:33:22.324Z,18.29
2022-10-10T13:36:17.818Z,18.25
2022-10-10T13:39:03.311Z,18.47
2022-10-10T13:41:49.165Z,18.47
2022-10-10T13:44:48.933Z,18.69
2022-10-10T13:47:46.073Z,18.72
2022-10-10T13:50:33.342Z,18.42
2022-10-10T13:53:41.424Z,18.44
2022-10-10T13:56:37.643Z,18.54
2022-10-10T13:59:24.507Z,18.67
2022-10-10T14:02:14.677Z,18.31
2022-10-10T14:05:07.750Z,18.12
2022-10-10T14:07:53.497Z,17.89
2022-10-10T14:10:39.019Z,17.79
2022-10-10T14:13:24.040Z,17.73
2022-10-10T14:16:12.359Z,17.59
2022-10-10T14:18:57.793Z,17.57
2022-10-10T14:21:42.545Z,17.47
2022-10-10T14:24:27.460Z,17.42
2022-10-10T14:27:22.187Z,17.41
2022-10-10T14:30:07.981Z,17.42
2022-10-10T14:32:52.875Z,17.45
2022-10-10T14:35:42.377Z,17.43
2022-10-10T14:38:27.622Z,17.56
2022-10-10T14:41:13.220Z,17.47
2022-10-10T14:43:58.286Z,17.62
2022-10-10T14:46:43.848Z,17.81
2022-10-10T14:49:29.047Z,17.94
2022-10-10T14:52:16.177Z,17.72
2022-10-10T14:55:01.145Z,17.58
2022-10-10T14:57:46.670Z,17.56
2022-10-10T15:00:31.819Z,17.40
2022-10-10T15:03:17.048Z,17.36
2022-10-10T15:06:02.493Z,17.29
2022-10-10T15:08:48.559Z,17.29
2022-10-10T15:11:33.786Z,17.20
2022-10-10T15:14:18.877Z,17.07
2022-10-10T15:17:05.780Z,17.03
2022-10-10T15:19:51.456Z,17.11
2022-10-10T15:22:37.769Z,17.16
2022-10-10T15:25:23.188Z,17.14
2022-10-10T15:28:11.246Z,16.99
2022-10-10T15:30:56.526Z,17.03
2022-10-10T15:33:41.483Z,16.98
2022-10-10T15:36:26.398Z,17.00
2022-10-10T15:39:11.798Z,16.96
2022-10-10T15:41:57.116Z,17.07
2022-10-10T15:44:47.066Z,16.98
2022-10-10T15:47:32.320Z,16.99
2022-10-10T15:50:17.669Z,16.95
2022-10-10T15:53:02.848Z,16.86
2022-10-10T15:55:50.795Z,16.88
2022-10-10T15:58:37.713Z,16.90
2022-10-10T16:01:23.631Z,16.79
2022-10-10T16:04:08.840Z,16.73
2022-10-10T16:06:59.299Z,16.77
2022-10-10T16:09:57.625Z,16.81
2022-10-10T16:12:42.717Z,16.76
2022-10-10T16:15:27.852Z,16.81
2022-10-10T16:18:12.585Z,16.77
2022-10-10T16:20:57.517Z,16.67
2022-10-10T16:23:42.294Z,16.58
2022-10-10T16:26:30.106Z,16.46
2022-10-10T16:29:15.477Z,16.50
2022-10-10T16:32:00.607Z,16.43
2022-10-10T16:34:45.557Z,16.50
2022-10-10T16:37:30.446Z,16.38
2022-10-10T16:40:15.369Z,16.29
2022-10-10T16:43:00.926Z,16.01
2022-10-10T16:45:46.378Z,15.59
2022-10-10T16:48:32.189Z,15.31
2022-10-10T16:51:19.734Z,15.16
2022-10-10T16:54:05.044Z,15.07
2022-10-10T16:56:50.191Z,14.90
2022-10-10T16:59:35.663Z,14.60
2022-10-10T17:02:21.233Z,14.49
2022-10-10T17:05:06.826Z,14.37
2022-10-10T17:07:51.737Z,14.19
2022-10-10T17:10:36.561Z,14.10
2022-10-10T17:13:21.479Z,14.21
2022-10-10T17:16:40.512Z,14.13
2022-10-10T17:19:14.048Z,13.97
2022-10-10T17:21:59.325Z,13.79
2022-10-10T17:24:44.438Z,13.78
2022-10-10T17:27:29.562Z,13.70
2022-10-10T17:30:17.218Z,13.70
2022-10-10T17:33:02.448Z,13.51
2022-10-10T17:35:52.054Z,13.50
2022-10-10T17:38:40.389Z,13.45
2022-10-10T17:41:25.577Z,13.48
2022-10-10T17:44:10.979Z,13.42
2022-10-10T17:46:56.761Z,13.32
2022-10-10T17:49:41.832Z,13.26
2022-10-10T17:52:26.921Z,13.33
2022-10-10T17:55:15.318Z,13.37
2022-10-10T17:58:00.438Z,13.34
2022-10-10T18:00:48.739Z,13.13
2022-10-10T18:03:33.702Z,13.07
2022-10-10T18:06:22.829Z,13.09
2022-10-10T18:09:07.738Z,13.01
2022-10-10T18:11:53.828Z,13.03
2022-10-10T18:14:39.316Z,13.08
2022-10-10T18:17:25.726Z,13.06
2022-10-10T18:20:11.284Z,13.13
2022-10-10T18:22:57.067Z,13.09
2022-10-10T18:25:43.727Z,13.03
2022-10-10T18:28:34.121Z,13.08
2022-10-10T18:31:22.950Z,13.11
2022-10-10T18:34:07.874Z,13.06
2022-10-10T18:36:53.762Z,13.01
2022-10-10T18:39:42.285Z,12.83
2022-10-10T18:42:27.354Z,13.04
2022-10-10T18:45:12.198Z,12.93
2022-10-10T18:48:00.097Z,12.89
2022-10-10T18:50:44.942Z,12.90
2022-10-10T18:53:30.504Z,12.93
2022-10-10T18:56:18.769Z,12.92
2022-10-10T18:59:05.209Z,12.94
2022-10-10T19:01:50.377Z,12.87
2022-10-10T19:04:35.592Z,12.71
2022-10-10T19:07:20.389Z,12.72
2022-10-10T19:10:06.023Z,12.62
2022-10-10T19:12:51.001Z,12.55
2022-10-10T19:15:36.065Z,12.49
2022-10-10T19:18:21.954Z,12.47
2022-10-10T19:21:10.261Z,12.34
2022-10-10T19:23:55.431Z,12.10
2022-10-10T19:26:41.278Z,11.98
2022-10-10T19:29:27.078Z,11.94
2022-10-10T19:32:11.995Z,11.75
2022-10-10T19:34:56.893Z,11.41
2022-10-10T19:37:41.830Z,11.51
2022-10-10T19:40:27.223Z,11.47
2022-10-10T19:43:12.636Z,11.41
2022-10-10T19:45:57.554Z,11.23
2022-10-10T19:48:45.833Z,11.08
2022-10-10T19:51:30.927Z,10.96
2022-10-10T19:54:16.244Z,11.14
2022-10-10T19:57:01.726Z,10.90
2022-10-10T19:59:46.725Z,10.84
2022-10-10T20:02:32.260Z,10.61
2022-10-10T20:05:17.309Z,10.42
2022-10-10T20:08:02.328Z,10.23
2022-10-10T20:10:51.535Z,10.32
2022-10-10T20:13:37.087Z,10.25
2022-10-10T20:16:24.158Z,10.11
2022-10-10T20:19:09.646Z,10.18
2022-10-10T20:21:55.456Z,10.18
2022-10-10T20:24:40.850Z,10.20
2022-10-10T20:27:30.848Z,10.14
2022-10-10T20:30:16.369Z,9.94
2022-10-10T20:33:02.856Z,9.92
2022-10-10T20:35:52.314Z,9.73
2022-10-10T20:38:40.437Z,9.68
2022-10-10T20:41:28.161Z,9.53
2022-10-10T20:44:16.542Z,9.41
2022-10-10T20:47:01.613Z,9.35
2022-10-10T20:49:47.091Z,9.35
2022-10-10T20:52:31.979Z,9.32
2022-10-10T20:55:17.499Z,9.26
2022-10-10T20:58:05.418Z,9.23
2022-10-10T21:00:50.473Z,9.18
2022-10-10T21:03:36.449Z,9.08
2022-10-10T21:06:24.719Z,9.02
2022-10-10T21:09:14.701Z,8.98
2022-10-10T21:12:00.032Z,8.97
2022-10-10T21:14:45.287Z,8.97
2022-10-10T21:17:30.574Z,8.98
2022-10-10T21:20:19.864Z,9.00
2022-10-10T21:23:05.095Z,9.00
2022-10-10T21:25:49.924Z,8.94
2022-10-10T21:28:35.509Z,8.94
2022-10-10T21:31:26.472Z,9.08
2022-10-10T21:34:13.920Z,9.08
2022-10-10T21:37:01.926Z,9.20
2022-10-10T21:39:47.081Z,9.23
2022-10-10T21:42:31.899Z,9.27
2022-10-10T21:45:17.136Z,9.19
2022-10-10T21:48:04.772Z,9.14
2022-10-10T21:50:49.683Z,9.17
2022-10-10T21:53:34.961Z,9.08
2022-10-10T21:56:20.013Z,9.06
2022-10-10T21:59:06.528Z,8.88
2022-10-10T22:01:51.822Z,9.01
2022-10-10T22:04:36.955Z,8.81
2022-10-10T22:07:21.823Z,8.77
2022-10-10T22:10:09.175Z,8.79
2022-10-10T22:12:55.217Z,8.75
2022-10-10T22:15:40.649Z,8.69
2022-10-10T22:18:25.865Z,8.66
2022-10-10T22:21:14.057Z,8.54
2022-10-10T22:24:00.379Z,8.42
2022-10-10T22:26:46.070Z,8.59
2022-10-10T22:29:31.313Z,8.75
2022-10-10T22:32:16.148Z,8.55
2022-10-10T22:35:01.304Z,8.60
2022-10-10T22:37:48.678Z,8.19
2022-10-10T22:40:33.617Z,8.05
2022-10-10T22:43:19.056Z,8.04
2022-10-10T22:46:04.325Z,7.84
2022-10-10T22:48:49.879Z,7.99
2022-10-10T22:51:34.745Z,7.92
2022-10-10T22:54:19.788Z,7.90
2022-10-10T22:57:04.765Z,7.79
2022-10-10T22:59:49.712Z,7.84
2022-10-10T23:02:35.219Z,7.97
2022-10-10T23:05:20.164Z,7.81
2022-10-10T23:08:05.380Z,7.75
2022-10-10T23:10:50.536Z,7.44
2022-10-10T23:13:35.608Z,7.33
2022-10-10T23:16:20.861Z,7.08
2022-10-10T23:19:05.731Z,6.94
2022-10-10T23:21:52.933Z,6.97
2022-10-10T23:24:38.582Z,7.04
2022-10-10T23:27:23.750Z,7.12
2022-10-10T23:30:08.918Z,6.89
2022-10-10T23:32:53.763Z,6.87
2022-10-10T23:35:38.794Z,6.83
2022-10-10T23:38:23.759Z,6.93
2022-10-10T23:41:09.559Z,6.69
2022-10-10T23:43:54.488Z,6.71
2022-10-10T23:46:39.481Z,6.63
2022-10-10T23:49:24.268Z,6.46
2022-10-10T23:52:09.434Z,6.34
2022-10-10T23:54:54.324Z,6.28
2022-10-10T23:57:39.543Z,6.26
